Time;durP1;ratioP1;P1;durP2;ratioP2;P2;SDS_P1;SDS_P2;PMS_P1;PMS_P2;Temp;Humidity;BMP_temperature;BMP_pressure;BME280_temperature;BME280_humidity;BME280_pressure;Samples;Min_cycle;Max_cycle;Signal;HPM_P1;HPM_P2
2023/01/15 00:01:22;;;;;;;5.20;3.63;;;6.40;99.90;;;;;;4995346;28;20181;-68
2023/01/15 00:03:48;;;;;;;6.47;3.80;;;6.30;99.90;;;;;;4996479;28;20223;-68
2023/01/15 00:06:15;;;;;;;3.97;3.67;;;6.20;99.90;;;;;;4996580;28;20231;-68
2023/01/15 00:08:41;;;;;;;4.50;4.20;;;6.10;99.90;;;;;;4996595;28;20176;-68
2023/01/15 00:11:07;;;;;;;5.03;4.53;;;6.00;99.90;;;;;;4996561;28;20259;-68
2023/01/15 00:13:32;;;;;;;8.40;4.00;;;6.00;99.90;;;;;;4997344;28;20259;-68
2023/01/15 00:16:05;;;;;;;5.00;4.00;;;5.90;99.90;;;;;;4996694;28;20212;-68
2023/01/15 00:18:31;;;;;;;4.67;4.10;;;5.80;99.90;;;;;;4996545;28;20232;-68
2023/01/15 00:21:01;;;;;;;5.87;4.20;;;5.80;99.90;;;;;;4994939;28;20190;-68
2023/01/15 00:29:00;;;;;;;7.93;4.90;;;5.70;99.90;;;;;;4996731;28;20180;-68
2023/01/15 00:31:27;;;;;;;8.23;4.80;;;5.70;99.90;;;;;;5011092;28;20187;-68
2023/01/15 00:33:53;;;;;;;5.13;4.63;;;5.60;99.90;;;;;;4996266;28;20238;-68
2023/01/15 00:36:19;;;;;;;6.40;4.80;;;5.60;99.90;;;;;;4996368;28;20180;-68
2023/01/15 00:38:45;;;;;;;6.97;5.67;;;5.60;99.90;;;;;;4994691;28;20204;-68
2023/01/15 00:41:10;;;;;;;6.97;4.73;;;5.50;99.90;;;;;;4996071;28;20169;-67
2023/01/15 00:43:36;;;;;;;7.73;5.07;;;5.50;99.90;;;;;;4995863;28;20215;-67
2023/01/15 00:46:04;;;;;;;8.73;5.40;;;5.50;99.90;;;;;;4995895;28;20235;-68
2023/01/15 00:48:30;;;;;;;5.20;4.80;;;5.40;99.90;;;;;;5010792;28;20188;-68
2023/01/15 00:50:56;;;;;;;6.97;4.77;;;5.40;99.90;;;;;;4994442;28;20653;-68
2023/01/15 00:53:22;;;;;;;5.83;5.23;;;5.40;99.90;;;;;;4994421;28;20220;-68
2023/01/15 00:55:48;;;;;;;7.07;5.10;;;5.40;99.90;;;;;;4995842;28;20229;-68
2023/01/15 00:58:13;;;;;;;5.57;5.03;;;5.40;99.90;;;;;;4995646;28;20215;-67
2023/01/15 01:00:39;;;;;;;6.70;4.80;;;5.40;99.90;;;;;;4995607;28;20172;-68
2023/01/15 01:03:05;;;;;;;5.13;4.73;;;5.40;99.90;;;;;;4995544;28;20192;-68
2023/01/15 01:05:31;;;;;;;5.57;5.07;;;5.40;99.90;;;;;;4995701;28;20553;-68
2023/01/15 01:07:58;;;;;;;5.20;4.80;;;5.40;99.90;;;;;;4995070;28;20315;-68
2023/01/15 01:10:24;;;;;;;5.07;4.67;;;5.40;99.90;;;;;;4995824;28;20183;-68
2023/01/15 01:12:51;;;;;;;6.37;4.80;;;5.30;99.90;;;;;;4994741;28;20216;-68
2023/01/15 01:15:18;;;;;;;5.10;4.70;;;5.30;99.90;;;;;;4995742;28;20176;-68
2023/01/15 01:17:44;;;;;;;6.50;5.00;;;5.40;99.90;;;;;;4995796;28;20231;-68
2023/01/15 01:20:13;;;;;;;5.10;4.70;;;5.40;99.90;;;;;;4995266;28;20192;-68
2023/01/15 01:22:39;;;;;;;9.47;4.70;;;5.40;99.90;;;;;;5010211;28;20200;-68
2023/01/15 01:25:05;;;;;;;10.57;5.00;;;5.40;99.90;;;;;;4995429;28;20181;-67
2023/01/15 01:27:31;;;;;;;5.40;4.90;;;5.40;99.90;;;;;;4995292;28;20169;-68
2023/01/15 01:29:57;;;;;;;6.17;4.90;;;5.40;99.90;;;;;;4995680;28;20184;-68
2023/01/15 01:32:23;;;;;;;12.13;5.53;;;5.30;99.90;;;;;;4994913;28;20203;-68
2023/01/15 01:34:48;;;;;;;10.63;4.70;;;5.40;99.90;;;;;;4994836;28;20680;-68
2023/01/15 01:37:14;;;;;;;7.60;5.27;;;5.40;99.90;;;;;;4995208;28;20169;-68
2023/01/15 01:39:40;;;;;;;9.27;4.70;;;5.40;99.90;;;;;;4995317;28;20216;-68
2023/01/15 01:42:16;;;;;;;5.10;4.60;;;5.30;99.90;;;;;;4994809;28;20200;-68
2023/01/15 01:44:42;;;;;;;5.53;5.03;;;5.30;99.90;;;;;;4994710;28;20545;-68
2023/01/15 01:47:25;;;;;;;5.10;4.70;;;5.30;99.90;;;;;;5009844;28;20180;-68
2023/01/15 01:49:59;;;;;;;9.40;4.60;;;5.30;99.90;;;;;;4994602;28;20156;-68
2023/01/15 01:52:30;;;;;;;4.73;4.43;;;5.20;99.90;;;;;;4993354;28;20736;-68
2023/01/15 01:54:56;;;;;;;4.27;3.97;;;5.20;99.90;;;;;;4994936;28;20176;-68
2023/01/15 01:57:23;;;;;;;4.80;4.40;;;5.10;99.90;;;;;;5009587;28;20199;-68
2023/01/15 01:59:49;;;;;;;4.63;4.23;;;5.10;99.90;;;;;;4994372;28;20207;-68
2023/01/15 02:02:17;;;;;;;4.60;4.20;;;5.00;99.90;;;;;;4994804;28;20194;-68
2023/01/15 02:04:43;;;;;;;4.20;4.00;;;5.00;99.90;;;;;;4994206;28;20179;-68
2023/01/15 02:07:09;;;;;;;4.40;4.00;;;5.10;99.90;;;;;;4994826;28;20169;-68
2023/01/15 02:09:35;;;;;;;5.20;4.43;;;5.00;99.90;;;;;;4994680;28;20223;-68
2023/01/15 02:12:17;;;;;;;4.60;4.20;;;5.00;99.90;;;;;;4994183;28;20209;-68
2023/01/15 02:15:08;;;;;;;4.90;4.40;;;5.00;99.90;;;;;;5009265;28;20227;-68
2023/01/15 02:18:08;;;;;;;5.23;4.57;;;5.00;99.90;;;;;;4994622;28;20306;-68
2023/01/15 02:20:43;;;;;;;3.87;3.70;;;4.90;99.90;;;;;;4989828;28;20743;-68
2023/01/15 02:23:21;;;;;;;4.30;3.90;;;4.90;99.90;;;;;;5009402;28;20204;-68
2023/01/15 02:25:47;;;;;;;3.90;3.70;;;4.90;99.90;;;;;;4994623;28;20556;-69
2023/01/15 02:28:25;;;;;;;4.03;3.73;;;4.90;99.90;;;;;;5009240;28;20185;-68
2023/01/15 02:31:04;;;;;;;5.40;4.23;;;4.90;99.90;;;;;;4994233;28;20235;-68
2023/01/15 02:33:38;;;;;;;4.27;4.03;;;4.90;99.90;;;;;;4994312;28;20683;-68
2023/01/15 02:36:10;;;;;;;5.83;4.00;;;4.90;99.90;;;;;;4993991;28;20164;-68
2023/01/15 02:38:41;;;;;;;6.37;3.90;;;5.00;99.90;;;;;;4992703;28;20202;-68
2023/01/15 02:41:16;;;;;;;4.10;3.80;;;5.00;99.90;;;;;;4994022;28;20160;-68
2023/01/15 02:43:50;;;;;;;5.33;4.00;;;5.00;99.90;;;;;;4993901;28;20294;-68
2023/01/15 02:46:18;;;;;;;5.47;4.27;;;5.10;99.90;;;;;;4992648;28;20187;-68
2023/01/15 02:48:49;;;;;;;4.30;3.90;;;5.10;99.90;;;;;;4993959;28;20184;-68
2023/01/15 02:51:20;;;;;;;4.20;4.00;;;5.10;99.90;;;;;;4992357;28;20184;-68
2023/01/15 02:53:49;;;;;;;4.60;4.20;;;5.10;99.90;;;;;;4994129;28;20192;-68
2023/01/15 02:56:19;;;;;;;4.27;4.00;;;5.10;99.90;;;;;;4993962;28;20239;-68
2023/01/15 02:58:48;;;;;;;5.03;4.53;;;5.20;99.90;;;;;;4994159;28;20223;-68
2023/01/15 03:01:18;;;;;;;4.73;4.00;;;5.30;99.90;;;;;;4993806;28;20176;-68
2023/01/15 03:04:06;;;;;;;4.30;4.00;;;5.30;99.90;;;;;;4993787;28;20227;-68
2023/01/15 03:06:50;;;;;;;4.40;4.10;;;5.40;99.90;;;;;;4992510;28;20176;-68
2023/01/15 03:09:16;;;;;;;4.73;4.20;;;5.50;99.90;;;;;;4992570;28;20177;-68
2023/01/15 03:11:48;;;;;;;4.33;3.90;;;5.40;99.90;;;;;;4993761;28;20173;-68
2023/01/15 03:14:19;;;;;;;4.20;3.90;;;5.50;99.90;;;;;;4993788;28;20161;-67
2023/01/15 03:16:52;;;;;;;4.50;4.20;;;5.50;99.90;;;;;;4993777;28;20267;-65
2023/01/15 03:19:24;;;;;;;5.93;4.00;;;5.40;99.90;;;;;;4993536;28;20192;-65
2023/01/15 03:22:06;;;;;;;8.33;4.17;;;5.40;99.90;;;;;;4993492;28;20235;-65
2023/01/15 03:24:39;;;;;;;4.53;4.10;;;5.40;99.90;;;;;;4993651;28;20662;-65
2023/01/15 03:27:06;;;;;;;4.70;4.30;;;5.40;99.90;;;;;;4996636;28;20618;-65
2023/01/15 03:29:37;;;;;;;4.10;3.80;;;5.40;99.90;;;;;;4997150;28;20187;-65
2023/01/15 03:32:04;;;;;;;6.47;4.10;;;5.50;99.90;;;;;;4997339;28;20226;-65
2023/01/15 03:34:42;;;;;;;4.20;3.80;;;5.60;99.90;;;;;;4997091;28;20196;-65
2023/01/15 03:37:08;;;;;;;6.27;3.83;;;5.60;99.90;;;;;;4997350;28;20172;-65
2023/01/15 03:39:34;;;;;;;4.27;3.87;;;5.60;99.90;;;;;;4996998;28;20200;-65
2023/01/15 03:42:03;;;;;;;4.53;4.10;;;5.60;99.90;;;;;;4996982;28;20189;-65
2023/01/15 03:44:49;;;;;;;6.23;4.37;;;5.60;99.90;;;;;;4996868;28;20785;-65
2023/01/15 03:47:46;;;;;;;4.80;4.33;;;5.60;99.90;;;;;;4997030;28;20165;-64
2023/01/15 03:50:12;;;;;;;4.93;4.33;;;5.50;99.90;;;;;;4972089;28;20211;-64
2023/01/15 03:52:47;;;;;;;4.90;3.97;;;5.50;99.90;;;;;;5011747;28;20677;-65
2023/01/15 03:55:24;;;;;;;7.10;4.50;;;5.60;99.90;;;;;;4995443;28;20176;-64
2023/01/15 03:58:00;;;;;;;7.10;4.23;;;5.60;99.90;;;;;;4995413;28;20176;-64
2023/01/15 04:00:32;;;;;;;5.27;4.40;;;5.70;99.90;;;;;;4995368;28;20712;-64
2023/01/15 04:03:02;;;;;;;5.87;4.30;;;5.60;99.90;;;;;;4996818;28;20211;-65
2023/01/15 04:05:29;;;;;;;5.03;4.60;;;5.60;99.90;;;;;;5011555;28;20184;-65
2023/01/15 04:07:57;;;;;;;8.27;4.83;;;5.60;99.90;;;;;;5011545;28;20645;-64
2023/01/15 04:10:23;;;;;;;5.00;4.50;;;5.60;99.90;;;;;;4996718;28;20194;-65
2023/01/15 04:12:49;;;;;;;10.13;4.60;;;5.60;99.90;;;;;;4996329;28;20242;-64
2023/01/15 04:15:16;;;;;;;5.03;4.47;;;5.60;99.90;;;;;;5011438;28;20233;-64
2023/01/15 04:17:41;;;;;;;5.27;4.37;;;5.60;99.90;;;;;;4995023;28;20191;-64
2023/01/15 04:20:08;;;;;;;4.73;4.37;;;5.60;99.90;;;;;;4994998;28;20212;-64
2023/01/15 04:22:35;;;;;;;4.37;3.97;;;5.60;99.90;;;;;;4996178;28;20188;-64
2023/01/15 04:25:01;;;;;;;7.93;4.20;;;5.60;99.90;;;;;;5011198;28;20187;-64
2023/01/15 04:27:27;;;;;;;14.43;4.83;;;5.60;99.90;;;;;;4996416;28;20187;-64
2023/01/15 04:29:53;;;;;;;5.90;4.83;;;5.60;99.90;;;;;;4996208;28;20180;-65
2023/01/15 04:32:18;;;;;;;4.63;4.20;;;5.60;99.90;;;;;;4996035;28;20782;-64
2023/01/15 04:34:44;;;;;;;4.77;4.40;;;5.60;99.90;;;;;;4995924;28;20638;-64
2023/01/15 04:37:10;;;;;;;5.60;4.63;;;5.60;99.90;;;;;;5010290;28;20189;-65
2023/01/15 04:39:36;;;;;;;7.93;4.33;;;5.60;99.90;;;;;;4995695;28;20211;-64
2023/01/15 04:44:46;;;;;;;4.40;4.10;;;5.60;99.90;;;;;;4996030;28;20172;-64
2023/01/15 04:47:11;;;;;;;5.23;4.50;;;5.60;99.90;;;;;;4995767;28;20548;-64
2023/01/15 04:49:37;;;;;;;7.93;5.23;;;5.60;99.90;;;;;;4996093;28;20212;-64
2023/01/15 04:52:03;;;;;;;6.03;4.83;;;5.60;99.90;;;;;;4995743;28;20594;-64
2023/01/15 04:54:29;;;;;;;5.83;4.70;;;5.60;99.90;;;;;;4995934;28;20234;-64
2023/01/15 04:56:55;;;;;;;5.10;4.07;;;5.60;99.90;;;;;;5010644;28;20561;-64
2023/01/15 04:59:23;;;;;;;4.83;4.30;;;5.60;99.90;;;;;;4995705;28;20211;-64
2023/01/15 05:01:49;;;;;;;4.33;4.00;;;5.60;99.90;;;;;;4995420;28;20203;-64
2023/01/15 05:04:15;;;;;;;6.40;4.20;;;5.60;99.90;;;;;;4995468;28;20175;-65
2023/01/15 05:06:41;;;;;;;8.47;4.93;;;5.60;99.90;;;;;;4994218;28;20181;-64
2023/01/15 05:09:06;;;;;;;6.87;4.40;;;5.60;99.90;;;;;;4995386;28;20633;-64
2023/01/15 05:11:37;;;;;;;6.73;4.43;;;5.60;99.90;;;;;;4993933;28;20641;-65
2023/01/15 05:14:04;;;;;;;4.90;4.20;;;5.60;99.90;;;;;;4995293;28;20180;-65
2023/01/15 05:16:30;;;;;;;4.60;4.20;;;5.70;99.90;;;;;;4995442;28;20208;-64
2023/01/15 05:18:58;;;;;;;5.00;4.60;;;5.70;99.90;;;;;;4994137;28;20208;-65
2023/01/15 05:21:27;;;;;;;7.50;4.53;;;5.70;99.90;;;;;;4995435;28;20180;-64
2023/01/15 05:23:56;;;;;;;5.07;4.43;;;5.70;99.90;;;;;;5010634;28;20196;-65
2023/01/15 05:26:22;;;;;;;7.00;4.67;;;5.60;99.90;;;;;;4994016;28;20557;-65
2023/01/15 05:28:48;;;;;;;4.43;4.07;;;5.60;99.90;;;;;;4995100;28;20229;-64
2023/01/15 05:31:17;;;;;;;7.60;4.10;;;5.60;99.90;;;;;;4995277;28;20521;-64
2023/01/15 05:33:44;;;;;;;9.40;4.63;;;5.60;99.90;;;;;;4994778;28;20251;-64
2023/01/15 05:36:16;;;;;;;4.90;4.47;;;5.60;99.90;;;;;;4994806;28;20199;-64
2023/01/15 05:38:42;;;;;;;8.13;4.27;;;5.60;99.90;;;;;;4995251;28;20196;-64
2023/01/15 05:43:58;;;;;;;5.33;4.60;;;5.70;99.90;;;;;;4995016;28;20575;-64
2023/01/15 05:46:24;;;;;;;8.47;4.70;;;5.70;99.90;;;;;;5009719;28;20180;-64
2023/01/15 05:48:50;;;;;;;4.27;3.97;;;5.70;99.90;;;;;;5009571;28;20192;-64
2023/01/15 05:51:15;;;;;;;12.83;4.70;;;5.70;99.90;;;;;;5009823;28;20185;-64
2023/01/15 05:53:41;;;;;;;5.67;4.40;;;5.70;99.90;;;;;;4994536;28;20204;-64
2023/01/15 05:56:07;;;;;;;5.07;4.60;;;5.70;99.90;;;;;;4994491;28;20184;-64
2023/01/15 05:58:33;;;;;;;5.50;4.90;;;5.70;99.90;;;;;;5009490;28;20205;-64
2023/01/15 06:00:59;;;;;;;9.27;4.43;;;5.70;99.90;;;;;;5009579;28;20192;-64
2023/01/15 06:03:26;;;;;;;8.00;4.80;;;5.70;99.90;;;;;;5009502;28;20200;-64
2023/01/15 06:05:53;;;;;;;7.03;4.30;;;5.70;99.90;;;;;;4994231;28;20180;-64
2023/01/15 06:08:19;;;;;;;6.13;4.50;;;5.70;99.90;;;;;;5009444;28;20188;-64
2023/01/15 06:10:45;;;;;;;9.93;5.47;;;5.70;99.90;;;;;;4994388;28;20176;-64
2023/01/15 06:13:12;;;;;;;9.80;4.87;;;5.80;99.90;;;;;;5009625;28;20290;-64
2023/01/15 06:15:38;;;;;;;9.97;4.73;;;5.80;99.90;;;;;;5009230;28;20192;-64
2023/01/15 06:18:04;;;;;;;5.63;4.47;;;5.80;99.90;;;;;;4993115;28;20235;-64
2023/01/15 06:20:29;;;;;;;6.40;4.83;;;5.80;99.90;;;;;;4992899;28;20553;-64
2023/01/15 06:22:55;;;;;;;5.13;4.73;;;5.80;99.90;;;;;;4993983;28;20202;-64
2023/01/15 06:25:21;;;;;;;6.57;4.60;;;5.80;99.90;;;;;;4994587;28;20231;-64
2023/01/15 06:27:48;;;;;;;9.17;4.97;;;5.80;99.90;;;;;;4994103;28;20212;-64
2023/01/15 06:30:14;;;;;;;6.43;4.77;;;5.80;99.90;;;;;;4994030;28;20227;-64
2023/01/15 06:32:40;;;;;;;10.80;5.07;;;5.80;99.90;;;;;;4993920;28;20207;-64
2023/01/15 06:35:06;;;;;;;15.57;5.17;;;5.80;99.90;;;;;;4994197;28;20176;-64
2023/01/15 06:37:32;;;;;;;9.03;5.10;;;5.70;99.90;;;;;;4993940;28;20183;-64
2023/01/15 06:39:58;;;;;;;5.20;4.70;;;5.80;99.90;;;;;;4994068;28;20229;-64
2023/01/15 06:47:55;;;;;;;10.43;4.93;;;5.90;99.90;;;;;;4994358;28;20163;-64
2023/01/15 06:50:20;;;;;;;11.07;5.80;;;5.90;99.90;;;;;;5009876;28;20173;-64
2023/01/15 06:52:46;;;;;;;13.03;5.70;;;5.90;99.90;;;;;;4998026;28;20248;-64
2023/01/15 06:55:12;;;;;;;5.77;4.43;;;6.00;99.90;;;;;;4995586;28;20641;-67
2023/01/15 06:57:39;;;;;;;9.57;5.37;;;6.00;99.90;;;;;;4994920;28;20188;-67
2023/01/15 07:00:07;;;;;;;9.20;5.00;;;5.90;99.90;;;;;;4994045;28;20200;-67
2023/01/15 07:02:32;;;;;;;12.03;5.30;;;6.00;99.90;;;;;;5012263;28;20208;-67
2023/01/15 07:04:58;;;;;;;13.90;5.20;;;6.00;99.90;;;;;;4997906;28;20177;-67
2023/01/15 07:07:26;;;;;;;5.20;4.57;;;5.90;99.90;;;;;;4998033;28;20200;-66
2023/01/15 07:09:52;;;;;;;7.63;4.93;;;5.90;99.90;;;;;;4997639;28;20271;-67
2023/01/15 07:12:18;;;;;;;10.70;4.97;;;6.00;99.90;;;;;;4996355;28;20342;-67
2023/01/15 07:14:44;;;;;;;10.87;5.07;;;6.00;99.90;;;;;;5012429;28;20181;-67
2023/01/15 07:17:10;;;;;;;8.17;5.20;;;5.90;99.90;;;;;;4997759;28;20176;-67
2023/01/15 07:19:36;;;;;;;8.00;4.63;;;5.90;99.90;;;;;;4997281;28;20204;-67
2023/01/15 07:22:01;;;;;;;7.17;5.30;;;5.90;99.90;;;;;;4997307;28;20196;-67
2023/01/15 07:24:27;;;;;;;8.00;4.63;;;5.90;99.90;;;;;;4997320;28;20641;-67
2023/01/15 07:26:53;;;;;;;7.87;5.07;;;5.90;99.90;;;;;;4997309;28;20172;-67
2023/01/15 07:29:19;;;;;;;9.10;4.80;;;5.90;99.90;;;;;;4997760;28;20180;-67
2023/01/15 07:31:44;;;;;;;6.60;4.60;;;5.90;99.90;;;;;;4997116;28;20183;-66
2023/01/15 07:34:10;;;;;;;5.97;4.73;;;5.90;99.90;;;;;;5012220;28;20238;-67
2023/01/15 07:36:36;;;;;;;9.40;5.00;;;5.90;99.90;;;;;;4995742;28;20177;-67
2023/01/15 07:39:07;;;;;;;9.50;5.73;;;6.00;99.90;;;;;;4995785;28;20208;-67
2023/01/15 07:49:47;;;;;;;10.30;5.67;;;6.00;99.90;;;;;;4997221;28;20199;-67
2023/01/15 07:52:21;;;;;;;11.97;4.77;;;6.00;99.90;;;;;;4995438;28;20254;-67
2023/01/15 07:54:48;;;;;;;5.37;4.80;;;6.00;99.90;;;;;;4996967;28;20227;-67
2023/01/15 07:57:18;;;;;;;7.70;4.70;;;6.00;99.90;;;;;;4996756;28;20187;-70
2023/01/15 07:59:44;;;;;;;6.60;4.63;;;6.10;99.90;;;;;;4996693;28;20204;-70
2023/01/15 08:02:11;;;;;;;4.97;4.37;;;6.00;99.90;;;;;;4996537;28;20700;-67
2023/01/15 08:04:37;;;;;;;9.17;4.50;;;6.10;99.90;;;;;;4996391;28;20526;-67
2023/01/15 08:07:04;;;;;;;8.67;4.50;;;6.10;99.90;;;;;;4996795;28;20180;-67
2023/01/15 08:09:30;;;;;;;12.73;5.40;;;6.10;99.90;;;;;;4995220;28;20191;-67
2023/01/15 08:17:29;;;;;;;5.00;4.50;;;6.10;99.90;;;;;;4996569;28;20540;-67
2023/01/15 08:19:55;;;;;;;8.70;5.03;;;6.10;99.90;;;;;;5011116;28;20200;-67
2023/01/15 08:22:20;;;;;;;6.20;4.70;;;6.10;99.90;;;;;;4996258;28;20332;-67
2023/01/15 08:24:46;;;;;;;11.37;5.00;;;6.10;99.90;;;;;;4996258;28;20571;-66
2023/01/15 08:27:12;;;;;;;7.13;4.93;;;6.20;99.90;;;;;;4996104;28;20227;-67
2023/01/15 08:29:39;;;;;;;7.30;4.53;;;6.20;99.90;;;;;;4996353;28;20697;-67
2023/01/15 08:32:05;;;;;;;8.97;4.70;;;6.20;99.90;;;;;;4996047;28;20201;-67
2023/01/15 08:34:31;;;;;;;6.30;4.70;;;6.20;99.90;;;;;;4996228;28;20207;-67
2023/01/15 08:36:58;;;;;;;10.53;5.27;;;6.20;99.90;;;;;;4995945;28;20168;-67
2023/01/15 08:39:26;;;;;;;6.93;5.00;;;6.20;99.90;;;;;;5010971;28;20246;-67
2023/01/15 08:41:52;;;;;;;5.60;4.80;;;6.20;99.90;;;;;;4994452;28;20576;-67
2023/01/15 08:44:20;;;;;;;8.10;4.60;;;6.20;99.90;;;;;;4995770;28;20188;-66
2023/01/15 08:46:46;;;;;;;11.33;4.80;;;6.20;99.90;;;;;;4996003;28;20180;-67
2023/01/15 08:49:12;;;;;;;6.60;4.40;;;6.20;99.90;;;;;;4996088;28;20183;-70
2023/01/15 08:51:38;;;;;;;8.17;5.00;;;6.20;99.90;;;;;;5011089;28;20177;-67
2023/01/15 08:54:04;;;;;;;7.37;4.60;;;6.20;99.90;;;;;;4995294;28;20268;-65
2023/01/15 08:56:30;;;;;;;5.43;4.67;;;6.20;99.90;;;;;;4995778;28;20216;-67
2023/01/15 08:58:56;;;;;;;10.47;4.90;;;6.20;99.90;;;;;;4996400;28;20542;-69
2023/01/15 09:01:22;;;;;;;7.93;5.27;;;6.20;99.90;;;;;;4995377;28;20173;-70
2023/01/15 09:03:47;;;;;;;7.83;5.13;;;6.20;99.90;;;;;;4996404;28;20188;-67
2023/01/15 09:06:13;;;;;;;7.20;5.37;;;6.20;99.90;;;;;;4995755;28;20168;-66
2023/01/15 09:08:40;;;;;;;6.03;5.07;;;6.20;99.90;;;;;;4995669;28;20267;-67
2023/01/15 09:11:08;;;;;;;9.63;4.87;;;6.10;99.90;;;;;;4994160;28;20545;-67
2023/01/15 09:13:36;;;;;;;5.20;4.70;;;6.10;99.90;;;;;;4995235;28;20199;-67
2023/01/15 09:16:04;;;;;;;8.50;4.50;;;6.20;99.90;;;;;;4993914;28;20578;-67
2023/01/15 09:18:29;;;;;;;8.47;4.97;;;6.20;99.90;;;;;;4995162;28;20276;-67
2023/01/15 09:20:55;;;;;;;5.20;4.70;;;6.20;99.90;;;;;;5010144;28;20211;-67
2023/01/15 09:23:21;;;;;;;7.23;4.60;;;6.20;99.90;;;;;;4994841;28;20201;-66
2023/01/15 09:26:14;;;;;;;12.43;4.70;;;6.10;99.90;;;;;;4993619;28;20212;-67
2023/01/15 09:28:39;;;;;;;7.33;4.77;;;6.20;99.90;;;;;;4986885;28;20204;-66
2023/01/15 09:31:05;;;;;;;8.00;4.83;;;6.20;99.90;;;;;;4995211;28;20180;-67
2023/01/15 09:33:31;;;;;;;5.10;4.43;;;6.10;99.90;;;;;;4994817;28;20200;-67
2023/01/15 09:35:56;;;;;;;4.83;4.43;;;6.10;99.90;;;;;;4994713;28;20657;-67
2023/01/15 09:38:22;;;;;;;5.83;4.50;;;6.10;99.90;;;;;;4995330;28;20206;-66
2023/01/15 09:40:55;;;;;;;12.10;4.77;;;6.10;99.90;;;;;;4994842;28;20204;-67
2023/01/15 09:43:39;;;;;;;5.97;4.43;;;6.00;99.90;;;;;;4994624;28;20210;-66
2023/01/15 09:46:44;;;;;;;4.83;4.40;;;5.90;99.90;;;;;;5009846;28;20263;-66
2023/01/15 09:49:33;;;;;;;6.70;4.30;;;5.90;99.90;;;;;;4934665;29;20182;-66
2023/01/15 09:52:19;;;;;;;5.00;4.50;;;5.90;99.90;;;;;;4991871;28;20228;-67
2023/01/15 09:55:02;;;;;;;4.53;4.10;;;5.80;99.90;;;;;;4994485;28;20175;-66
2023/01/15 09:57:29;;;;;;;5.27;4.77;;;5.80;99.90;;;;;;5009669;28;20687;-68
2023/01/15 10:00:01;;;;;;;4.83;4.27;;;5.90;99.90;;;;;;5009678;28;20231;-67
2023/01/15 10:02:57;;;;;;;5.00;4.60;;;5.90;99.90;;;;;;4994633;28;20202;-67
2023/01/15 10:06:13;;;;;;;9.13;4.90;;;6.00;99.90;;;;;;4987187;28;20195;-64
2023/01/15 10:08:43;;;;;;;9.73;4.63;;;6.10;99.90;;;;;;4969115;28;20200;-65
2023/01/15 10:11:16;;;;;;;9.17;4.60;;;6.20;99.90;;;;;;4994272;28;20214;-64
2023/01/15 10:14:07;;;;;;;7.03;4.87;;;6.20;99.90;;;;;;5009334;28;20200;-68
2023/01/15 10:16:33;;;;;;;4.90;4.47;;;6.20;99.90;;;;;;4993525;28;20208;-63
2023/01/15 10:19:01;;;;;;;5.70;4.53;;;6.10;99.90;;;;;;4994042;28;20574;-63
2023/01/15 10:21:50;;;;;;;8.23;4.57;;;6.20;99.90;;;;;;4993965;28;20251;-63
2023/01/15 10:24:37;;;;;;;5.40;4.50;;;6.30;99.90;;;;;;4994101;28;20168;-63
2023/01/15 10:27:23;;;;;;;8.53;4.80;;;6.40;99.90;;;;;;4994385;28;20188;-63
2023/01/15 10:29:59;;;;;;;4.80;4.27;;;6.40;99.90;;;;;;4994367;28;20168;-63
2023/01/15 10:32:52;;;;;;;6.03;4.20;;;6.50;99.90;;;;;;5009091;28;20669;-63
2023/01/15 10:35:18;;;;;;;8.40;4.80;;;6.50;99.90;;;;;;4989833;28;20211;-65
2023/01/15 10:37:50;;;;;;;14.53;4.53;;;6.50;99.90;;;;;;4992606;28;20180;-66
2023/01/15 10:40:24;;;;;;;10.00;5.17;;;6.40;99.90;;;;;;4992687;28;20200;-67
2023/01/15 10:42:59;;;;;;;5.17;4.50;;;6.40;99.90;;;;;;4993738;28;20208;-66
2023/01/15 10:45:32;;;;;;;7.67;4.77;;;6.50;99.90;;;;;;4993810;28;20194;-65
2023/01/15 10:48:15;;;;;;;5.07;4.30;;;6.60;99.90;;;;;;4992679;28;20187;-66
2023/01/15 10:50:41;;;;;;;5.87;4.50;;;6.60;99.90;;;;;;4994145;28;20164;-66
2023/01/15 10:53:13;;;;;;;6.40;4.27;;;6.60;99.90;;;;;;4993901;28;20192;-66
2023/01/15 10:55:46;;;;;;;15.77;5.20;;;6.50;99.90;;;;;;4993869;28;20169;-66
2023/01/15 10:59:07;;;;;;;10.67;4.63;;;6.50;99.90;;;;;;4994020;28;20606;-66
2023/01/15 11:01:33;;;;;;;12.00;4.73;;;6.60;99.90;;;;;;4934163;29;20277;-66
2023/01/15 11:04:00;;;;;;;4.87;4.30;;;6.60;99.90;;;;;;4976917;28;20189;-66
2023/01/15 11:06:30;;;;;;;9.40;5.47;;;6.50;99.90;;;;;;4993550;28;20177;-66
2023/01/15 11:08:57;;;;;;;7.83;4.50;;;6.50;99.90;;;;;;4993690;28;20188;-66
2023/01/15 11:19:35;;;;;;;4.50;4.10;;;6.50;99.90;;;;;;4993878;28;20181;-66
2023/01/15 11:20:26;;;;;;;10.93;5.47;;;6.90;99.90;;;;;;4993609;28;20223;-70
2023/01/15 11:22:53;;;;;;;14.67;5.13;;;7.20;99.90;;;;;;4993641;28;20201;-70
2023/01/15 11:25:30;;;;;;;7.80;4.33;;;7.20;99.90;;;;;;4993629;28;20234;-70
2023/01/15 11:27:59;;;;;;;4.73;4.30;;;7.20;99.90;;;;;;4993503;28;20175;-66
2023/01/15 11:30:32;;;;;;;11.53;4.60;;;7.10;99.90;;;;;;4993443;28;20185;-66
2023/01/15 11:33:02;;;;;;;6.53;4.40;;;7.00;99.90;;;;;;4992206;28;20588;-68
2023/01/15 11:35:29;;;;;;;5.43;4.90;;;6.90;99.90;;;;;;4993601;28;20597;-67
2023/01/15 11:38:13;;;;;;;6.03;4.63;;;6.90;99.90;;;;;;4992404;28;20192;-67
2023/01/15 11:40:49;;;;;;;9.77;4.50;;;6.90;99.90;;;;;;4993479;28;20176;-67
2023/01/15 11:52:00;;;;;;;4.53;4.13;;;6.80;99.90;;;;;;4996697;28;20695;-64
2023/01/15 11:54:28;;;;;;;10.53;4.67;;;6.80;99.90;;;;;;5011879;28;20187;-64
2023/01/15 11:56:55;;;;;;;5.87;4.30;;;6.80;99.90;;;;;;4997045;28;20700;-64
2023/01/15 11:59:22;;;;;;;10.30;4.70;;;6.80;99.90;;;;;;4996735;28;20200;-64
2023/01/15 12:02:03;;;;;;;7.37;4.63;;;6.80;99.90;;;;;;4996987;28;20211;-64
2023/01/15 12:04:37;;;;;;;6.80;4.53;;;6.80;99.90;;;;;;4997210;28;20161;-64
2023/01/15 12:07:05;;;;;;;6.90;4.60;;;6.90;99.90;;;;;;4996449;28;20705;-64
2023/01/15 12:10:12;;;;;;;8.73;5.03;;;6.80;99.90;;;;;;4996810;28;20189;-65
2023/01/15 12:12:58;;;;;;;6.40;5.23;;;6.90;99.90;;;;;;4985021;28;20212;-70
2023/01/15 12:15:33;;;;;;;10.97;4.53;;;6.80;99.90;;;;;;4996379;28;20184;-64
2023/01/15 12:18:29;;;;;;;12.03;4.83;;;6.90;99.90;;;;;;5011503;28;20180;-64
2023/01/15 12:21:10;;;;;;;5.87;3.73;;;6.90;99.90;;;;;;4996442;28;20215;-65
2023/01/15 12:23:36;;;;;;;8.07;4.90;;;6.90;99.90;;;;;;5012023;28;20255;-64
2023/01/15 12:26:32;;;;;;;7.13;4.60;;;6.90;99.90;;;;;;4996212;28;20168;-66
2023/01/15 12:29:21;;;;;;;6.87;4.40;;;6.80;99.90;;;;;;4996925;28;20189;-72
2023/01/15 12:31:51;;;;;;;7.63;4.40;;;6.80;99.90;;;;;;4994812;28;20268;-68
2023/01/15 12:34:39;;;;;;;5.10;4.57;;;6.80;99.90;;;;;;5011123;28;20553;-68
2023/01/15 12:37:11;;;;;;;4.40;4.00;;;6.80;99.90;;;;;;4995943;28;20606;-67
2023/01/15 12:39:48;;;;;;;9.97;4.67;;;6.80;99.90;;;;;;4996263;28;20271;-67
2023/01/15 12:45:09;;;;;;;6.13;4.03;;;6.80;99.90;;;;;;4996444;28;20584;-68
2023/01/15 12:48:03;;;;;;;4.70;4.17;;;6.80;99.90;;;;;;4995216;28;20530;-66
2023/01/15 12:50:46;;;;;;;5.80;4.43;;;6.80;99.90;;;;;;5011819;28;20644;-65
2023/01/15 12:53:42;;;;;;;5.20;4.33;;;6.70;99.90;;;;;;4997033;28;20250;-63
2023/01/15 12:56:26;;;;;;;5.43;4.17;;;6.70;99.90;;;;;;4997440;28;20165;-66
2023/01/15 12:59:01;;;;;;;7.63;3.97;;;6.70;99.90;;;;;;4996109;28;20197;-63
2023/01/15 13:01:36;;;;;;;7.00;4.50;;;6.70;99.90;;;;;;4996600;28;20164;-62
2023/01/15 13:04:24;;;;;;;6.23;4.07;;;6.70;99.90;;;;;;4994437;28;20260;-63
2023/01/15 13:07:18;;;;;;;8.60;4.50;;;6.60;99.90;;;;;;4995486;28;20173;-64
2023/01/15 13:10:07;;;;;;;7.97;4.23;;;6.70;99.90;;;;;;4990167;28;20228;-67
2023/01/15 13:12:34;;;;;;;4.60;4.20;;;6.60;99.90;;;;;;4994230;28;20209;-66
2023/01/15 13:15:03;;;;;;;11.00;4.43;;;6.70;99.90;;;;;;4995286;28;20191;-64
2023/01/15 13:18:06;;;;;;;5.90;4.37;;;6.90;99.90;;;;;;4995187;28;20179;-64
2023/01/15 13:20:50;;;;;;;5.60;4.20;;;6.90;99.90;;;;;;4995232;28;20755;-66
2023/01/15 13:23:51;;;;;;;6.83;4.20;;;6.80;99.90;;;;;;4993834;28;20231;-66
2023/01/15 13:26:24;;;;;;;5.07;4.57;;;6.80;99.90;;;;;;4995263;28;20565;-67
2023/01/15 13:28:59;;;;;;;7.03;4.30;;;6.80;99.90;;;;;;4995523;28;20184;-66
2023/01/15 13:31:56;;;;;;;4.43;4.00;;;6.90;99.90;;;;;;5010140;28;20203;-67
2023/01/15 13:34:29;;;;;;;5.17;4.30;;;7.00;99.90;;;;;;5009970;28;20176;-67
2023/01/15 13:37:14;;;;;;;7.17;4.40;;;7.00;99.90;;;;;;4993560;28;20183;-66
2023/01/15 13:39:43;;;;;;;9.77;4.40;;;6.90;99.90;;;;;;5009843;28;20204;-67
2023/01/15 13:42:34;;;;;;;5.73;4.77;;;6.80;99.90;;;;;;4994798;28;20804;-66
2023/01/15 13:45:33;;;;;;;5.70;4.10;;;6.70;99.90;;;;;;4994721;28;20246;-66
2023/01/15 13:48:15;;;;;;;5.93;4.07;;;6.70;99.90;;;;;;5009827;28;20211;-67
2023/01/15 13:50:56;;;;;;;6.80;4.30;;;6.70;99.90;;;;;;4994768;28;20161;-66
2023/01/15 13:53:31;;;;;;;7.50;4.73;;;6.60;99.90;;;;;;4994860;28;20254;-66
2023/01/15 13:56:09;;;;;;;7.90;4.40;;;6.60;99.90;;;;;;4994918;28;20213;-66
2023/01/15 13:58:41;;;;;;;6.53;4.40;;;6.70;99.90;;;;;;4994789;28;20625;-66
2023/01/15 14:01:23;;;;;;;4.43;4.10;;;6.70;99.90;;;;;;4994597;28;20163;-65
2023/01/15 14:03:57;;;;;;;4.30;3.90;;;6.70;99.90;;;;;;4994625;28;20196;-66
2023/01/15 14:06:41;;;;;;;6.97;4.60;;;6.70;99.90;;;;;;4994288;28;20171;-62